Time;durP1;ratioP1;P1;durP2;ratioP2;P2;SDS_P1;SDS_P2;PMS_P1;PMS_P2;Temp;Humidity;BMP_temperature;BMP_pressure;BME280_temperature;BME280_humidity;BME280_pressure;Samples;Min_cycle;Max_cycle;Signal;HPM_P1;HPM_P2
2022/09/25 00:00:53;;;;;;;6.20;5.60;;;;;;;16.09;48.75;99926.16;5074389;28;20109;-79
2022/09/25 00:03:20;;;;;;;8.20;7.10;;;;;;;15.45;48.84;99816.69;5074793;28;20024;-79
2022/09/25 00:05:46;;;;;;;7.65;6.10;;;;;;;15.63;48.71;99853.41;5073309;28;20024;-80
2022/09/25 00:08:13;;;;;;;5.00;4.50;;;;;;;15.99;49.16;99925.75;5074456;28;20500;-79
2022/09/25 00:10:44;;;;;;;5.88;5.30;;;;;;;16.16;49.15;99942.97;5073077;28;20028;-79
2022/09/25 00:13:10;;;;;;;5.47;4.97;;;;;;;15.60;48.85;99843.97;5073070;28;20069;-79
2022/09/25 00:15:37;;;;;;;5.63;5.22;;;;;;;16.21;48.72;99953.00;5072954;28;20044;-79
2022/09/25 00:18:03;;;;;;;5.90;5.32;;;;;;;15.58;48.66;99875.28;5072883;28;20081;-79
2022/09/25 00:20:28;;;;;;;5.00;4.47;;;;;;;16.12;48.98;99949.72;5074219;28;20029;-79
2022/09/25 00:22:55;;;;;;;5.35;4.65;;;;;;;15.37;48.98;99883.41;5074118;28;20028;-79
2022/09/25 00:25:20;;;;;;;4.60;4.20;;;;;;;15.39;49.35;99868.06;5074094;28;20028;-79
2022/09/25 00:27:47;;;;;;;4.68;4.35;;;;;;;15.50;49.53;99894.06;5074091;28;20017;-79
2022/09/25 00:30:15;;;;;;;4.97;4.57;;;;;;;15.26;49.48;99876.81;5072677;28;20040;-79
2022/09/25 00:32:40;;;;;;;5.80;4.50;;;;;;;15.62;49.90;99931.63;5073836;28;20033;-79
2022/09/25 00:35:06;;;;;;;4.72;4.32;;;;;;;15.60;49.85;99934.47;5072560;28;20035;-79
2022/09/25 00:37:33;;;;;;;4.97;4.38;;;;;;;15.06;49.53;99855.47;5073662;28;20504;-78
2022/09/25 00:39:59;;;;;;;4.85;4.10;;;;;;;15.53;49.64;99929.09;5072656;28;20016;-79
2022/09/25 00:42:25;;;;;;;4.80;4.28;;;;;;;15.47;49.39;99927.22;5074114;28;20040;-79
2022/09/25 00:44:55;;;;;;;5.10;4.60;;;;;;;15.18;49.56;99900.94;5074409;28;20028;-79
2022/09/25 00:47:47;;;;;;;5.57;4.20;;;;;;;15.05;50.14;99904.38;5073827;28;20056;-79
2022/09/25 00:50:25;;;;;;;4.90;4.50;;;;;;;14.44;49.67;99816.53;5069144;28;20060;-79
2022/09/25 00:52:53;;;;;;;4.65;4.25;;;;;;;14.64;49.86;99848.53;5072305;28;20039;-79
2022/09/25 00:55:20;;;;;;;4.82;4.40;;;;;;;14.72;50.23;99888.22;5073771;28;20050;-79
2022/09/25 00:57:49;;;;;;;4.95;4.55;;;;;;;14.99;50.23;99918.44;5073626;28;20024;-79
2022/09/25 01:00:15;;;;;;;5.05;4.60;;;;;;;14.57;50.43;99869.75;5073436;28;20048;-80
2022/09/25 01:02:52;;;;;;;5.07;4.20;;;;;;;14.89;50.72;99921.47;5073674;28;20046;-79
2022/09/25 01:05:22;;;;;;;4.97;4.47;;;;;;;14.32;50.43;99812.75;5073453;28;20048;-79
2022/09/25 01:07:49;;;;;;;4.28;3.97;;;;;;;14.42;50.26;99839.81;5072844;28;20027;-79
2022/09/25 01:10:16;;;;;;;5.15;4.40;;;;;;;15.05;50.08;99928.31;5073465;28;20021;-79
2022/09/25 01:12:46;;;;;;;4.90;4.43;;;;;;;15.00;50.15;99916.63;5073712;28;20459;-79
2022/09/25 01:15:14;;;;;;;4.45;4.15;;;;;;;14.70;49.90;99884.13;5073927;28;20477;-79
2022/09/25 01:17:59;;;;;;;4.20;3.85;;;;;;;15.00;50.19;99917.44;5072165;28;20024;-79
2022/09/25 01:21:10;;;;;;;5.20;4.20;;;;;;;15.02;50.25;99915.41;5073350;28;20040;-79
2022/09/25 01:23:53;;;;;;;5.22;4.72;;;;;;;14.97;50.09;99909.03;5057096;28;20486;-79
2022/09/25 01:26:50;;;;;;;4.78;4.30;;;;;;;14.91;50.57;99919.44;5071726;28;20123;-79
2022/09/25 01:29:23;;;;;;;4.60;4.20;;;;;;;14.61;50.36;99878.97;5073062;28;20024;-79
2022/09/25 01:32:03;;;;;;;5.10;4.70;;;;;;;14.55;50.75;99881.59;5071668;28;20024;-79
2022/09/25 01:34:40;;;;;;;4.57;4.22;;;;;;;14.87;50.25;99920.84;5072764;28;20103;-79
2022/09/25 01:37:24;;;;;;;5.85;4.47;;;;;;;14.12;50.48;99812.63;5071505;28;20526;-80
2022/09/25 01:40:10;;;;;;;4.63;4.32;;;;;;;14.21;50.39;99839.88;5072940;28;20028;-79
2022/09/25 01:42:48;;;;;;;4.97;4.10;;;;;;;14.55;50.53;99921.44;5072882;28;20024;-79
2022/09/25 01:45:23;;;;;;;4.30;3.90;;;;;;;13.85;50.55;99800.97;5072796;28;20024;-79
2022/09/25 01:47:51;;;;;;;4.82;4.43;;;;;;;14.16;50.28;99874.97;5072829;28;20431;-79
2022/09/25 01:50:31;;;;;;;4.32;3.92;;;;;;;12.89;50.53;99668.94;5072650;28;20048;-79
2022/09/25 01:53:02;;;;;;;4.80;4.32;;;;;;;14.26;50.66;99887.91;5072305;28;20060;-79
2022/09/25 01:55:38;;;;;;;4.70;4.30;;;;;;;13.87;50.98;99837.94;5072407;28;20485;-79
2022/09/25 01:58:12;;;;;;;4.63;4.30;;;;;;;14.13;50.78;99877.19;5072547;28;20081;-79
2022/09/25 02:00:42;;;;;;;4.70;4.22;;;;;;;14.43;50.57;99930.97;5072627;28;20490;-79
2022/09/25 02:03:27;;;;;;;5.20;4.75;;;;;;;13.96;50.51;99863.34;5071187;28;20032;-79
2022/09/25 02:05:56;;;;;;;4.90;4.47;;;;;;;14.35;50.53;99929.25;5072273;28;20024;-79
2022/09/25 02:08:27;;;;;;;5.60;4.35;;;;;;;14.10;50.78;99904.09;5072236;28;20077;-79
2022/09/25 02:10:59;;;;;;;4.40;4.10;;;;;;;14.19;50.94;99937.50;5072395;28;20024;-79
2022/09/25 02:13:36;;;;;;;4.22;3.92;;;;;;;13.60;50.55;99844.88;5071014;28;20044;-79
2022/09/25 02:16:08;;;;;;;4.57;4.18;;;;;;;13.13;50.63;99769.28;5072321;28;20031;-79
2022/09/25 02:21:42;;;;;;;4.43;4.03;;;;;;;14.14;50.72;99930.09;5071277;28;20044;-79
2022/09/25 02:24:26;;;;;;;5.57;4.20;;;;;;;13.82;50.95;99898.75;5070671;28;20025;-79
2022/09/25 02:26:52;;;;;;;4.95;4.55;;;;;;;13.80;50.37;99882.19;5072386;28;20489;-79
2022/09/25 02:29:18;;;;;;;7.60;4.88;;;;;;;14.10;50.63;99928.00;5072213;28;20082;-79
2022/09/25 02:31:52;;;;;;;5.35;4.85;;;;;;;14.03;50.25;99922.63;5071894;28;20028;-79
2022/09/25 02:34:18;;;;;;;4.55;4.15;;;;;;;13.68;50.35;99876.56;5071949;28;20028;-79
2022/09/25 02:36:43;;;;;;;4.82;4.30;;;;;;;13.35;50.58;99839.91;5079146;28;20409;-80
2022/09/25 02:39:10;;;;;;;4.72;4.32;;;;;;;13.99;50.66;99919.53;5071689;28;20471;-80
2022/09/25 02:41:39;;;;;;;5.00;4.60;;;;;;;14.05;50.28;99933.88;5071658;28;20032;-79
2022/09/25 02:44:23;;;;;;;4.80;4.40;;;;;;;14.05;50.32;99927.75;5071631;28;20028;-79
2022/09/25 02:47:26;;;;;;;4.45;4.05;;;;;;;13.98;50.53;99935.66;5071729;28;20054;-79
2022/09/25 02:50:04;;;;;;;5.82;4.65;;;;;;;13.90;50.80;99939.25;5071527;28;20031;-79
2022/09/25 02:52:35;;;;;;;5.28;4.78;;;;;;;13.84;50.55;99932.06;5071381;28;20103;-79
2022/09/25 02:55:11;;;;;;;8.48;4.78;;;;;;;13.61;50.58;99915.50;5071564;28;20064;-79
2022/09/25 02:57:54;;;;;;;5.32;4.45;;;;;;;13.67;51.06;99939.44;5071644;28;20112;-79
2022/09/25 03:00:22;;;;;;;7.88;4.57;;;;;;;13.19;50.41;99860.53;5074375;28;20098;-79
2022/09/25 03:02:52;;;;;;;5.07;4.57;;;;;;;13.66;50.91;99931.66;5096048;28;20028;-78
2022/09/25 03:05:18;;;;;;;4.78;4.35;;;;;;;13.08;50.68;99839.78;5080672;28;20412;-79
2022/09/25 03:10:30;;;;;;;5.10;4.60;;;;;;;13.51;50.95;99944.97;5071717;28;20043;-79
2022/09/25 03:12:55;;;;;;;5.03;4.60;;;;;;;13.40;51.20;99926.91;5071288;28;20024;-79
2022/09/25 03:15:22;;;;;;;5.38;4.88;;;;;;;13.17;50.62;99895.19;5071263;28;20029;-79
2022/09/25 03:17:49;;;;;;;5.40;4.63;;;;;;;12.91;51.21;99861.22;5071046;28;20089;-79
2022/09/25 03:20:15;;;;;;;5.18;4.50;;;;;;;13.00;51.24;99891.91;5071134;28;20029;-79
2022/09/25 03:22:40;;;;;;;5.60;4.72;;;;;;;12.72;50.79;99828.16;5069805;28;20469;-79
2022/09/25 03:25:06;;;;;;;4.43;4.05;;;;;;;12.84;51.15;99848.88;5071081;28;20530;-79
2022/09/25 03:27:32;;;;;;;5.93;4.40;;;;;;;12.56;51.08;99811.63;5071177;28;20479;-79
2022/09/25 03:29:57;;;;;;;5.22;4.30;;;;;;;12.80;51.09;99872.28;5071139;28;20107;-79
2022/09/25 03:32:23;;;;;;;5.03;4.63;;;;;;;13.27;51.06;99930.19;5073707;28;20077;-79
2022/09/25 03:34:48;;;;;;;5.32;4.93;;;;;;;12.47;51.19;99829.44;5073756;28;20111;-79
2022/09/25 03:37:13;;;;;;;4.75;4.30;;;;;;;13.21;51.13;99965.41;5073827;28;20115;-79
2022/09/25 03:39:39;;;;;;;5.88;4.72;;;;;;;12.81;51.34;99889.81;5075246;28;20029;-79
2022/09/25 03:42:04;;;;;;;5.90;5.40;;;;;;;12.26;50.92;99793.09;5075039;28;20097;-79
2022/09/25 03:44:30;;;;;;;6.20;5.60;;;;;;;13.11;51.40;99933.00;5074804;28;20524;-79
2022/09/25 03:46:55;;;;;;;5.85;5.35;;;;;;;12.77;51.15;99885.91;5074912;28;20028;-79
2022/09/25 03:49:21;;;;;;;6.18;5.57;;;;;;;13.31;51.09;99952.66;5073910;28;20027;-79
2022/09/25 03:51:47;;;;;;;6.38;5.78;;;;;;;13.30;50.66;99971.44;5073546;28;20029;-79
2022/09/25 03:54:12;;;;;;;6.45;5.60;;;;;;;12.49;51.06;99830.06;5074869;28;20020;-79
2022/09/25 03:56:38;;;;;;;6.53;5.80;;;;;;;12.66;50.71;99858.03;5075157;28;20032;-79
2022/09/25 03:59:04;;;;;;;6.55;5.95;;;;;;;12.36;50.38;99784.88;5073513;28;20409;-80
2022/09/25 04:01:29;;;;;;;6.65;5.45;;;;;;;12.73;50.24;99852.81;5074923;28;20046;-79
2022/09/25 04:03:55;;;;;;;5.70;5.20;;;;;;;12.47;50.47;99821.47;5074656;28;20469;-79
2022/09/25 04:06:24;;;;;;;5.82;5.03;;;;;;;12.97;50.65;99896.75;5074823;28;20039;-79
2022/09/25 04:08:51;;;;;;;5.85;5.35;;;;;;;13.23;50.69;99925.44;5073366;28;20504;-79
2022/09/25 04:11:18;;;;;;;5.75;5.25;;;;;;;13.33;50.33;99944.53;5074658;28;20028;-79
2022/09/25 04:13:44;;;;;;;6.07;5.20;;;;;;;12.92;50.18;99868.16;5074612;28;20517;-79
2022/09/25 04:16:11;;;;;;;8.15;5.53;;;;;;;13.27;50.42;99935.50;5074538;28;20050;-79
2022/09/25 04:18:37;;;;;;;6.13;5.55;;;;;;;11.89;50.39;99695.25;5074124;28;20025;-79
2022/09/25 04:21:05;;;;;;;10.13;6.00;;;;;;;13.17;49.82;99903.16;5074187;28;20086;-79
2022/09/25 04:23:31;;;;;;;7.03;5.10;;;;;;;13.07;50.26;99902.59;5074102;28;20035;-79
2022/09/25 04:25:57;;;;;;;6.63;5.15;;;;;;;12.98;50.36;99880.66;5074149;28;20059;-79
2022/09/25 04:28:22;;;;;;;6.15;5.55;;;;;;;13.49;50.26;99952.31;5073143;28;20058;-79
2022/09/25 04:30:48;;;;;;;6.22;5.63;;;;;;;12.83;50.34;99858.66;5074125;28;20028;-79
2022/09/25 04:35:58;;;;;;;5.38;4.45;;;;;;;12.94;50.52;99897.94;5074159;28;20067;-79
2022/09/25 04:38:24;;;;;;;6.05;5.47;;;;;;;12.37;50.47;99826.22;5072678;28;20111;-79
2022/09/25 04:40:49;;;;;;;6.47;5.47;;;;;;;13.47;50.39;99958.81;5074078;28;20115;-79
2022/09/25 04:43:14;;;;;;;6.70;5.20;;;;;;;12.98;50.27;99885.97;5072895;28;20055;-79
2022/09/25 04:45:40;;;;;;;6.80;5.28;;;;;;;12.95;50.44;99880.22;5073838;28;20481;-79
2022/09/25 04:48:06;;;;;;;7.93;5.50;;;;;;;13.36;49.92;99936.19;5074046;28;20025;-79
2022/09/25 04:50:32;;;;;;;6.82;5.70;;;;;;;13.45;49.99;99955.50;5074168;28;20028;-79
2022/09/25 04:52:58;;;;;;;6.10;5.50;;;;;;;12.86;50.35;99863.59;5072233;28;20032;-79
2022/09/25 04:55:24;;;;;;;7.60;5.63;;;;;;;11.23;50.02;99607.00;5073723;28;20507;-80
2022/09/25 04:57:55;;;;;;;6.63;6.03;;;;;;;13.38;50.36;99963.41;5073634;28;20107;-79
2022/09/25 05:00:21;;;;;;;6.25;5.65;;;;;;;13.40;50.26;99979.13;5073324;28;20113;-79
2022/09/25 05:02:47;;;;;;;6.82;5.88;;;;;;;12.83;49.76;99877.22;5072327;28;20386;-79
2022/09/25 05:05:13;;;;;;;6.07;5.50;;;;;;;12.94;50.14;99920.97;5073453;28;20028;-79
2022/09/25 05:07:38;;;;;;;6.07;5.57;;;;;;;12.91;50.05;99943.38;5073301;28;20023;-79
2022/09/25 05:10:06;;;;;;;6.38;5.45;;;;;;;13.03;50.31;99978.19;5073079;28;20032;-79
2022/09/25 05:12:32;;;;;;;7.68;5.65;;;;;;;12.20;50.10;99828.22;5073288;28;20036;-79
2022/09/25 05:14:57;;;;;;;6.18;5.57;;;;;;;12.84;49.86;99944.28;5071956;28;20033;-79
2022/09/25 05:17:23;;;;;;;6.65;5.95;;;;;;;13.13;49.84;99985.84;5071898;28;20047;-79
2022/09/25 05:19:48;;;;;;;6.93;6.22;;;;;;;13.06;49.94;99993.72;5073334;28;20107;-79
2022/09/25 05:22:14;;;;;;;6.40;5.80;;;;;;;12.73;50.16;99929.66;5073136;28;20032;-79
2022/09/25 05:24:39;;;;;;;7.65;6.30;;;;;;;13.24;49.72;99972.16;5071937;28;20086;-79
2022/09/25 05:27:05;;;;;;;6.28;5.68;;;;;;;12.98;49.87;99928.38;5073272;28;20103;-79
2022/09/25 05:29:30;;;;;;;7.05;5.85;;;;;;;13.40;49.71;99973.81;5071812;28;20036;-80
2022/09/25 05:31:55;;;;;;;6.93;6.20;;;;;;;12.99;49.19;99906.16;5072995;28;20024;-80
2022/09/25 05:34:21;;;;;;;5.93;5.32;;;;;;;13.57;49.39;99984.03;5071583;28;20115;-79
2022/09/25 05:36:46;;;;;;;7.05;5.70;;;;;;;13.09;48.93;99883.84;5072781;28;20035;-79
2022/09/25 05:39:12;;;;;;;5.97;5.15;;;;;;;12.67;48.82;99803.22;5072765;28;20035;-79
2022/09/25 05:41:38;;;;;;;5.72;5.15;;;;;;;13.79;49.00;99976.91;5072899;28;20024;-79
2022/09/25 05:44:05;;;;;;;6.75;5.85;;;;;;;13.87;49.10;99990.06;5071639;28;20477;-79
2022/09/25 05:46:40;;;;;;;7.30;5.55;;;;;;;13.34;49.25;99903.75;5071758;28;20050;-79
2022/09/25 05:49:05;;;;;;;6.18;5.05;;;;;;;13.27;49.14;99897.53;5092541;28;20463;-80
2022/09/25 05:51:31;;;;;;;5.35;4.85;;;;;;;14.02;48.66;99979.38;5096062;28;20024;-81
2022/09/25 05:53:58;;;;;;;6.00;4.82;;;;;;;13.33;48.54;99860.50;5072411;28;20420;-79
2022/09/25 05:56:23;;;;;;;8.13;5.80;;;;;;;13.28;48.62;99835.53;5071269;28;20036;-79
2022/09/25 05:58:50;;;;;;;5.97;5.38;;;;;;;13.97;48.63;99945.44;5072742;28;20029;-79
2022/09/25 06:01:16;;;;;;;7.85;5.32;;;;;;;14.40;48.07;99998.56;5072343;28;20049;-79
2022/09/25 06:03:41;;;;;;;5.97;5.47;;;;;;;13.98;47.99;99922.38;5072373;28;20028;-79
2022/09/25 06:06:07;;;;;;;5.43;5.00;;;;;;;14.55;47.70;99996.66;5072318;28;20082;-80
2022/09/25 06:08:34;;;;;;;7.07;5.45;;;;;;;14.55;47.43;99978.06;5072395;28;20030;-79
2022/09/25 06:11:01;;;;;;;5.45;4.95;;;;;;;14.75;47.33;99988.03;5072493;28;20056;-79
2022/09/25 06:13:30;;;;;;;8.60;5.38;;;;;;;14.76;47.11;100000.28;5089734;28;20092;-79
2022/09/25 06:15:56;;;;;;;7.22;4.72;;;;;;;14.31;47.03;99909.41;5090881;28;20444;-79
2022/09/25 06:18:23;;;;;;;5.80;5.20;;;;;;;14.88;47.06;99993.44;5072114;28;20028;-79
2022/09/25 06:20:49;;;;;;;7.82;5.40;;;;;;;14.98;46.74;99991.25;5072176;28;20021;-79
2022/09/25 06:23:15;;;;;;;6.28;5.60;;;;;;;14.97;46.57;99991.47;5071724;28;20025;-80
2022/09/25 06:25:41;;;;;;;5.68;5.18;;;;;;;14.69;46.20;99923.16;5070394;28;20390;-79
2022/09/25 06:28:07;;;;;;;7.60;5.40;;;;;;;14.92;46.18;99947.66;5071882;28;20028;-79
2022/09/25 06:30:35;;;;;;;5.40;4.90;;;;;;;15.12;46.05;99950.44;5071831;28;20020;-79
2022/09/25 06:33:03;;;;;;;4.82;4.43;;;;;;;15.11;45.55;99929.34;5071808;28;20092;-79
2022/09/25 06:35:29;;;;;;;5.22;4.20;;;;;;;15.13;45.01;99944.09;5071714;28;20493;-79
2022/09/25 06:37:58;;;;;;;5.97;5.32;;;;;;;15.46;44.98;99978.81;5070245;28;20032;-79
2022/09/25 06:40:30;;;;;;;4.90;4.50;;;;;;;15.52;44.90;99979.84;5071833;28;20505;-79
2022/09/25 06:43:03;;;;;;;7.22;4.68;;;;;;;15.26;44.94;99936.16;5071711;28;20028;-79
2022/09/25 06:45:32;;;;;;;5.57;5.07;;;;;;;15.21;44.88;99919.16;5071675;28;20039;-79
2022/09/25 06:48:03;;;;;;;5.80;5.05;;;;;;;15.03;44.54;99874.50;5071552;28;20043;-79
2022/09/25 06:50:36;;;;;;;5.38;4.95;;;;;;;15.07;44.49;99867.75;5071727;28;20082;-79
2022/09/25 06:53:01;;;;;;;5.88;5.22;;;;;;;15.47;44.06;99905.94;5071724;28;20063;-79
2022/09/25 06:55:28;;;;;;;5.10;4.60;;;;;;;16.02;44.40;99975.13;5071522;28;20162;-79
2022/09/25 06:57:54;;;;;;;8.05;5.13;;;;;;;15.80;43.90;99929.22;5070258;28;20032;-79
2022/09/25 07:00:19;;;;;;;6.53;5.15;;;;;;;15.65;44.00;99894.78;5071714;28;20048;-79
2022/09/25 07:05:28;;;;;;;7.32;5.13;;;;;;;16.05;43.83;99943.56;5071338;28;20043;-79
2022/09/25 07:07:54;;;;;;;6.65;5.78;;;;;;;16.05;43.76;99937.44;5071212;28;20016;-79
2022/09/25 07:10:21;;;;;;;6.40;5.80;;;;;;;15.71;43.60;99869.19;5071551;28;20021;-79
2022/09/25 07:12:47;;;;;;;7.57;6.32;;;;;;;16.33;43.27;99962.03;5071579;28;20029;-79
2022/09/25 07:15:13;;;;;;;6.18;5.57;;;;;;;16.30;43.69;99948.31;5071307;28;20016;-79
2022/09/25 07:17:42;;;;;;;7.95;6.15;;;;;;;16.58;43.09;99980.91;5071390;28;20398;-79
2022/09/25 07:20:11;;;;;;;8.90;6.72;;;;;;;16.06;43.18;99875.16;5070316;28;20501;-79
2022/09/25 07:22:36;;;;;;;5.88;5.20;;;;;;;16.08;43.37;99870.44;5070030;28;20028;-79
2022/09/25 07:25:01;;;;;;;6.82;5.93;;;;;;;16.40;43.30;99904.25;5071486;28;20020;-79
2022/09/25 07:27:29;;;;;;;6.75;5.68;;;;;;;16.68;43.22;99945.88;5071421;28;20024;-79
2022/09/25 07:29:54;;;;;;;7.07;5.32;;;;;;;16.51;42.79;99914.28;5070050;28;20024;-79
2022/09/25 07:32:19;;;;;;;9.95;5.70;;;;;;;16.52;42.47;99904.44;5071319;28;20028;-79
2022/09/25 07:34:49;;;;;;;7.10;5.22;;;;;;;16.64;42.70;99925.94;5069775;28;20039;-79
2022/09/25 07:37:16;;;;;;;7.47;5.57;;;;;;;16.79;42.57;99938.03;5070939;28;20090;-79
2022/09/25 07:39:42;;;;;;;6.70;5.38;;;;;;;16.99;42.55;99961.19;5070885;28;20056;-79
2022/09/25 07:42:08;;;;;;;6.15;5.20;;;;;;;17.00;42.48;99946.81;5071066;28;20067;-79
2022/09/25 07:44:33;;;;;;;6.05;5.45;;;;;;;17.28;42.16;99976.72;5071012;28;20025;-79
2022/09/25 07:47:00;;;;;;;8.48;5.13;;;;;;;16.64;42.45;99851.31;5071084;28;20027;-78
2022/09/25 07:49:25;;;;;;;7.15;4.88;;;;;;;16.73;41.93;99852.72;5071028;28;20412;-79
2022/09/25 07:51:51;;;;;;;5.43;4.75;;;;;;;17.03;42.22;99883.19;5070882;28;20031;-79
2022/09/25 07:54:16;;;;;;;4.95;4.45;;;;;;;17.50;42.12;99928.38;5070839;28;20445;-79
2022/09/25 07:56:42;;;;;;;6.97;4.95;;;;;;;17.23;41.49;99876.97;5071111;28;20113;-79
2022/09/25 07:59:07;;;;;;;6.18;5.57;;;;;;;17.27;41.16;99870.19;5071006;28;20551;-79
2022/09/25 08:01:32;;;;;;;6.20;5.53;;;;;;;17.26;40.71;99874.69;5070884;28;20055;-79
2022/09/25 08:03:58;;;;;;;5.47;4.85;;;;;;;17.89;40.83;99964.75;5071034;28;20020;-79
2022/09/25 08:06:23;;;;;;;7.22;5.40;;;;;;;17.43;40.72;99883.03;5071035;28;20028;-79
2022/09/25 08:08:49;;;;;;;5.90;5.18;;;;;;;17.52;40.82;99867.56;5070723;28;20028;-79
2022/09/25 08:11:16;;;;;;;4.88;4.38;;;;;;;18.13;40.71;99955.97;5070594;28;20020;-79
2022/09/25 08:13:43;;;;;;;7.70;4.82;;;;;;;18.16;40.52;99946.69;5069502;28;20476;-79
2022/09/25 08:16:13;;;;;;;7.63;5.30;;;;;;;18.23;40.39;99948.28;5070879;28;20485;-78
2022/09/25 08:18:42;;;;;;;5.73;5.13;;;;;;;18.29;40.03;99934.03;5073331;28;20025;-79
2022/09/25 08:21:09;;;;;;;6.20;5.32;;;;;;;18.17;39.89;99892.19;5074225;28;20029;-79
2022/09/25 08:23:35;;;;;;;5.95;5.38;;;;;;;18.69;39.81;99952.44;5074323;28;20449;-79
2022/09/25 08:26:01;;;;;;;5.57;5.05;;;;;;;18.79;39.56;99920.66;5074249;28;20103;-79
2022/09/25 08:28:27;;;;;;;7.45;5.55;;;;;;;18.96;39.30;99924.38;5074039;28;20633;-78
2022/09/25 08:30:53;;;;;;;6.35;5.10;;;;;;;19.20;38.98;99924.50;5072677;28;20420;-79
2022/09/25 08:33:19;;;;;;;6.32;5.72;;;;;;;19.22;38.92;99904.50;5074300;28;20024;-79
2022/09/25 08:35:54;;;;;;;5.32;4.63;;;;;;;19.57;39.08;99933.34;5074375;28;20489;-79
2022/09/25 08:38:19;;;;;;;8.50;5.22;;;;;;;19.47;38.72;99896.38;5072675;28;20055;-79
2022/09/25 08:40:53;;;;;;;6.35;4.95;;;;;;;19.17;38.76;99810.69;5073949;28;20489;-79
2022/09/25 08:43:23;;;;;;;4.93;4.20;;;;;;;19.98;38.37;99925.31;5073821;28;20111;-79
2022/09/25 08:49:01;;;;;;;6.07;4.93;;;;;;;19.74;38.13;99832.53;5074287;28;20597;-79
2022/09/25 08:51:29;;;;;;;4.22;3.80;;;;;;;20.18;38.47;99884.81;5072453;28;20032;-79
2022/09/25 08:53:54;;;;;;;5.28;4.78;;;;;;;20.06;38.58;99837.56;5073944;28;20107;-78
2022/09/25 08:56:20;;;;;;;4.30;3.90;;;;;;;20.33;38.90;99856.72;5073893;28;20162;-79
2022/09/25 08:59:15;;;;;;;3.63;3.33;;;;;;;20.76;39.30;99886.69;5073606;28;20028;-79
2022/09/25 09:01:52;;;;;;;4.75;3.50;;;;;;;20.99;39.04;99893.06;5069244;28;20540;-78
2022/09/25 09:04:32;;;;;;;4.70;4.10;;;;;;;21.14;39.08;99888.81;5073511;28;20029;-79
2022/09/25 09:07:13;;;;;;;3.42;3.13;;;;;;;21.30;38.87;99884.59;5072253;28;20021;-79
2022/09/25 09:09:59;;;;;;;5.07;3.55;;;;;;;21.29;38.66;99840.00;5073430;28;20031;-79
2022/09/25 09:12:42;;;;;;;3.85;3.33;;;;;;;21.29;38.75;99815.00;5073043;28;20094;-79
2022/09/25 09:15:33;;;;;;;3.85;3.45;;;;;;;21.84;38.82;99861.69;5073354;28;20153;-79
2022/09/25 09:18:04;;;;;;;6.43;4.05;;;;;;;21.73;38.55;99830.31;5071958;28;20059;-79
2022/09/25 09:20:49;;;;;;;4.72;3.78;;;;;;;21.88;38.52;99806.38;5073289;28;20032;-79
2022/09/25 09:23:18;;;;;;;3.42;3.13;;;;;;;20.91;38.19;99626.66;5072941;28;20040;-79
2022/09/25 09:26:05;;;;;;;3.30;3.00;;;;;;;22.39;38.10;99838.63;5072791;28;20060;-79
2022/09/25 09:28:42;;;;;;;3.95;3.65;;;;;;;22.64;38.02;99843.53;5072713;28;20150;-79
2022/09/25 09:31:36;;;;;;;3.20;3.00;;;;;;;22.82;38.01;99835.97;5072944;28;20016;-79
2022/09/25 09:34:04;;;;;;;3.58;3.00;;;;;;;23.05;37.67;99826.84;5072736;28;20056;-79
2022/09/25 09:36:44;;;;;;;4.80;2.88;;;;;;;23.23;37.47;99817.59;5072933;28;20035;-79
2022/09/25 09:39:10;;;;;;;4.15;3.75;;;;;;;23.37;37.08;99812.63;5073450;28;20028;-79
2022/09/25 09:41:54;;;;;;;4.50;4.10;;;;;;;23.43;36.76;99803.50;5072841;28;20098;-79
2022/09/25 09:44:38;;;;;;;6.78;4.75;;;;;;;23.68;36.52;99814.53;5071411;28;20020;-79
2022/09/25 09:47:16;;;;;;;3.08;2.85;;;;;;;23.76;35.84;99805.16;5071419;28;20532;-80
2022/09/25 09:49:51;;;;;;;4.68;2.50;;;;;;;23.11;35.45;99671.50;5072779;28;20028;-79
2022/09/25 09:52:20;;;;;;;3.00;2.70;;;;;;;24.17;35.16;99806.28;5072479;28;20032;-79
2022/09/25 09:54:49;;;;;;;4.38;3.15;;;;;;;24.29;34.64;99804.22;5070919;28;20136;-79
2022/09/25 09:57:20;;;;;;;3.85;2.63;;;;;;;24.31;34.17;99782.38;5072340;28;20101;-79
2022/09/25 10:00:12;;;;;;;3.28;2.85;;;;;;;24.33;34.13;99747.84;5072320;28;20052;-79
2022/09/25 10:02:50;;;;;;;2.78;2.58;;;;;;;24.42;34.20;99721.16;5071354;28;20016;-79
2022/09/25 10:05:34;;;;;;;3.33;2.85;;;;;;;25.14;34.16;99798.66;5071103;28;20468;-79
2022/09/25 10:07:59;;;;;;;2.45;2.28;;;;;;;24.89;33.82;99721.84;5072558;28;20063;-79
2022/09/25 10:10:36;;;;;;;2.97;2.67;;;;;;;24.98;33.52;99708.66;5072345;28;20052;-78
2022/09/25 10:13:05;;;;;;;3.22;2.92;;;;;;;25.69;33.32;99781.72;5072262;28;20032;-78
2022/09/25 10:15:41;;;;;;;4.32;3.15;;;;;;;25.65;33.18;99758.97;5070802;28;20036;-78
2022/09/25 10:18:07;;;;;;;2.90;2.70;;;;;;;25.93;32.79;99781.97;5071824;28;20111;-78
2022/09/25 10:20:43;;;;;;;3.42;2.47;;;;;;;25.34;32.41;99669.78;5071780;28;20044;-78
2022/09/25 10:23:29;;;;;;;3.83;2.17;;;;;;;26.21;31.87;99764.34;5070665;28;20451;-78
2022/09/25 10:25:54;;;;;;;2.50;2.30;;;;;;;26.14;31.58;99758.41;5071925;28;20029;-78
2022/09/25 10:28:41;;;;;;;2.72;2.38;;;;;;;26.24;31.64;99744.84;5071772;28;20028;-78
2022/09/25 10:31:08;;;;;;;4.85;2.90;;;;;;;26.09;31.16;99707.81;5071663;28;20027;-78
2022/09/25 10:33:33;;;;;;;2.50;2.30;;;;;;;26.04;30.53;99632.06;5071842;28;20115;-78
2022/09/25 10:35:59;;;;;;;4.22;2.42;;;;;;;26.23;30.10;99640.34;5071927;28;20412;-78
2022/09/25 10:38:33;;;;;;;2.60;2.35;;;;;;;27.02;29.44;99734.22;5070324;28;20489;-79
2022/09/25 10:41:07;;;;;;;2.50;2.30;;;;;;;27.11;29.25;99734.44;5070826;28;20024;-78
2022/09/25 10:43:32;;;;;;;2.20;2.10;;;;;;;27.22;28.82;99717.81;5071683;28;20040;-78
2022/09/25 10:46:05;;;;;;;5.57;2.30;;;;;;;27.40;28.08;99720.91;5071440;28;20452;-78
2022/09/25 10:51:25;;;;;;;2.40;1.90;;;;;;;27.17;27.79;99635.72;5071239;28;20059;-79
2022/09/25 10:54:09;;;;;;;2.13;2.00;;;;;;;27.75;26.95;99701.66;5071666;28;20036;-79
2022/09/25 10:56:37;;;;;;;2.78;1.92;;;;;;;27.82;26.41;99695.88;5071400;28;20025;-79
2022/09/25 10:59:19;;;;;;;2.50;2.00;;;;;;;27.61;25.72;99649.16;5071040;28;20035;-77
2022/09/25 11:01:46;;;;;;;5.68;2.17;;;;;;;27.88;25.52;99693.91;5071073;28;20044;-78
2022/09/25 11:04:26;;;;;;;2.38;2.13;;;;;;;27.05;25.84;99573.75;5071168;28;20035;-79
2022/09/25 11:06:57;;;;;;;2.50;2.13;;;;;;;27.37;25.84;99627.38;5071263;28;20039;-79
2022/09/25 11:09:27;;;;;;;2.10;1.90;;;;;;;27.82;25.89;99717.59;5071362;28;20020;-79
2022/09/25 11:12:07;;;;;;;2.20;2.00;;;;;;;27.85;26.23;99698.00;5070036;28;20029;-79
2022/09/25 11:14:34;;;;;;;2.10;1.90;;;;;;;27.88;25.84;99693.91;5071115;28;20025;-78
2022/09/25 11:17:04;;;;;;;1.65;1.50;;;;;;;27.69;25.89;99653.97;5071358;28;20024;-79
2022/09/25 11:19:37;;;;;;;2.15;2.05;;;;;;;27.78;26.20;99663.09;5070937;28;20110;-79
2022/09/25 11:22:15;;;;;;;2.35;2.13;;;;;;;28.20;25.76;99679.69;5071082;28;20493;-78
2022/09/25 11:25:25;;;;;;;1.90;1.80;;;;;;;28.13;25.90;99659.13;5071058;28;20533;-78
2022/09/25 11:28:03;;;;;;;1.85;1.75;;;;;;;28.41;25.73;99670.25;5029420;28;20018;-79
2022/09/25 11:30:38;;;;;;;2.17;2.00;;;;;;;28.42;25.64;99661.78;5068885;28;20028;-78
2022/09/25 11:33:41;;;;;;;3.45;2.20;;;;;;;28.44;25.45;99675.09;5070037;28;20516;-79
2022/09/25 11:36:28;;;;;;;1.92;1.75;;;;;;;28.06;25.72;99626.09;5070148;28;20032;-79
2022/09/25 11:42:15;;;;;;;2.10;1.80;;;;;;;28.21;26.15;99654.16;5058590;28;20036;-79
2022/09/25 11:44:53;;;;;;;2.40;2.20;;;;;;;27.85;26.28;99581.34;5070678;28;20028;-78
2022/09/25 11:47:28;;;;;;;1.65;1.55;;;;;;;28.17;25.41;99656.66;5070912;28;20023;-79
2022/09/25 11:49:55;;;;;;;2.10;1.77;;;;;;;27.87;25.67;99624.47;5071202;28;20025;-78
2022/09/25 11:52:39;;;;;;;1.92;1.83;;;;;;;27.81;25.21;99645.41;5071899;28;20032;-78
2022/09/25 11:55:26;;;;;;;1.92;1.75;;;;;;;27.50;25.19;99642.19;5074802;28;20021;-78
2022/09/25 11:58:03;;;;;;;2.33;2.13;;;;;;;27.38;25.69;99630.91;5074624;28;20027;-78
2022/09/25 12:00:48;;;;;;;2.60;1.90;;;;;;;26.72;25.85;99558.28;5074690;28;20048;-78
2022/09/25 12:03:13;;;;;;;2.08;1.98;;;;;;;26.99;26.22;99622.88;5074617;28;20095;-79
2022/09/25 12:05:51;;;;;;;3.30;1.60;;;;;;;26.85;25.72;99619.97;5073533;28;20458;-79
2022/09/25 12:08:40;;;;;;;2.05;1.83;;;;;;;26.60;25.61;99600.09;5075011;28;20116;-78
2022/09/25 12:11:36;;;;;;;2.03;1.90;;;;;;;26.68;25.74;99612.22;5074328;28;20024;-79